Time;durP1;ratioP1;P1;durP2;ratioP2;P2;SDS_P1;SDS_P2;PMS_P1;PMS_P2;Temp;Humidity;BMP_temperature;BMP_pressure;BME280_temperature;BME280_humidity;BME280_pressure;Samples;Min_cycle;Max_cycle;Signal;HPM_P1;HPM_P2
2022/09/05 00:00:09;;;;;;;7.22;3.45;;;;;;;6.62;60.43;100432.03;4784626;29;20047;-76
2022/09/05 00:03:01;;;;;;;7.07;3.00;;;;;;;6.69;60.67;100441.63;4794126;29;20051;-76
2022/09/05 00:05:33;;;;;;;7.00;3.25;;;;;;;6.70;61.16;100447.69;4786937;29;20039;-76
2022/09/05 00:08:02;;;;;;;10.50;3.17;;;;;;;6.68;60.75;100437.28;4785040;29;20047;-76
2022/09/05 00:10:37;;;;;;;7.85;3.38;;;;;;;6.69;61.05;100440.75;4787650;29;20142;-78
2022/09/05 00:13:09;;;;;;;6.78;3.70;;;;;;;6.70;61.04;100429.56;4769602;29;20078;-78
2022/09/05 00:15:41;;;;;;;;;;;;;;;6.72;61.62;100439.09;4783561;29;21524;-76
2022/09/05 00:18:29;;;;;;;5.80;3.58;;;;;;;6.67;61.16;100426.94;4769971;29;19925;-76
2022/09/05 00:21:19;;;;;;;7.03;3.25;;;;;;;6.70;61.21;100437.31;4784940;29;20051;-76
2022/09/05 00:24:16;;;;;;;6.95;3.13;;;;;;;6.69;61.00;100438.16;4784976;29;20079;-76
2022/09/05 00:27:16;;;;;;;5.32;3.60;;;;;;;6.67;61.45;100430.38;4792856;29;20180;-77
2022/09/05 00:30:05;;;;;;;10.30;3.60;;;;;;;6.63;61.52;100428.56;4786934;29;20079;-76
2022/09/05 00:32:50;;;;;;;10.75;3.35;;;;;;;6.59;61.02;100432.81;4784284;29;20050;-76
2022/09/05 00:35:47;;;;;;;12.10;2.60;;;;;;;6.58;61.31;100427.63;4785573;29;20039;-75
2022/09/05 00:38:20;;;;;;;7.95;2.85;;;;;;;6.54;61.73;100431.00;4786338;29;20059;-77
2022/09/05 00:40:49;;;;;;;8.68;3.15;;;;;;;6.50;61.17;100424.03;4772713;29;20043;-76
2022/09/05 00:43:27;;;;;;;6.43;2.78;;;;;;;6.44;61.38;100417.91;4788737;29;20533;-75
2022/09/05 00:46:02;;;;;;;5.15;2.75;;;;;;;6.38;62.09;100414.34;4790254;29;20046;-75
2022/09/05 00:49:06;;;;;;;7.05;3.50;;;;;;;6.46;62.08;100430.88;4789589;29;20051;-76
2022/09/05 00:51:47;;;;;;;7.82;3.03;;;;;;;6.48;61.77;100432.63;4787995;29;20138;-78
2022/09/05 00:54:23;;;;;;;7.60;3.10;;;;;;;6.47;62.32;100430.03;4787479;29;20111;-77
2022/09/05 00:57:04;;;;;;;5.28;2.65;;;;;;;6.45;62.28;100426.56;4785026;29;20220;-78
2022/09/05 00:59:45;;;;;;;9.80;3.85;;;;;;;6.43;62.02;100429.09;4790026;29;20373;-77
2022/09/05 01:02:20;;;;;;;5.25;2.90;;;;;;;6.40;61.92;100425.59;4792389;29;20056;-78
2022/09/05 01:05:01;;;;;;;5.30;2.63;;;;;;;6.40;61.98;100417.84;4793058;29;20066;-77
2022/09/05 01:07:40;;;;;;;8.23;3.00;;;;;;;6.39;62.47;100418.69;4793297;29;20099;-77
2022/09/05 01:10:35;;;;;;;7.00;2.75;;;;;;;6.40;61.96;100423.00;4790365;29;20150;-75
2022/09/05 01:13:20;;;;;;;7.28;3.08;;;;;;;6.40;61.85;100417.84;4788316;29;20055;-76
2022/09/05 01:16:57;;;;;;;11.05;3.20;;;;;;;6.38;62.60;100415.22;4788569;29;20055;-78
2022/09/05 01:20:00;;;;;;;7.47;3.10;;;;;;;6.36;62.46;100410.84;4758817;30;20059;-77
2022/09/05 01:22:45;;;;;;;7.97;3.15;;;;;;;6.34;62.05;100413.44;4735662;30;20150;-76
2022/09/05 01:25:51;;;;;;;8.07;2.67;;;;;;;6.35;62.62;100409.13;4786188;29;20066;-78
2022/09/05 01:28:51;;;;;;;4.80;2.70;;;;;;;6.36;62.23;100411.75;4777422;29;20071;-75
2022/09/05 01:31:36;;;;;;;7.28;2.30;;;;;;;6.34;62.46;100408.25;4788499;29;20099;-77
2022/09/05 01:34:11;;;;;;;28.38;15.52;;;;;;;6.31;62.52;100409.06;4786433;29;20149;-78
2022/09/05 01:37:22;;;;;;;6.90;3.47;;;;;;;6.31;62.61;100403.88;4787676;29;20530;-75
2022/09/05 01:40:03;;;;;;;7.45;2.60;;;;;;;6.33;62.71;100406.50;4785316;29;20146;-77
2022/09/05 01:43:03;;;;;;;7.03;3.35;;;;;;;6.33;62.61;100409.97;4785772;29;20043;-77
2022/09/05 01:45:54;;;;;;;5.95;2.42;;;;;;;6.33;62.91;100403.94;4785005;29;20115;-77
2022/09/05 01:48:39;;;;;;;11.60;3.10;;;;;;;6.25;62.78;100390.88;4785857;29;20079;-76
2022/09/05 01:51:24;;;;;;;6.85;3.38;;;;;;;6.26;63.08;100400.38;4785170;29;20047;-77
2022/09/05 01:54:17;;;;;;;10.60;2.78;;;;;;;6.26;63.00;100400.38;4786103;29;20322;-77
2022/09/05 01:56:59;;;;;;;8.68;3.03;;;;;;;6.20;62.98;100389.91;4780976;29;20120;-77
2022/09/05 01:59:46;;;;;;;8.13;2.92;;;;;;;6.16;63.16;100388.09;4800336;29;20047;-77
2022/09/05 02:02:59;;;;;;;7.25;3.28;;;;;;;6.16;62.75;100398.44;4785834;29;20063;-76
2022/09/05 02:05:37;;;;;;;6.57;2.97;;;;;;;6.12;63.58;100402.69;4778979;29;20043;-77
2022/09/05 02:08:15;;;;;;;6.88;3.25;;;;;;;6.10;63.70;100412.13;4772862;29;20047;-75
2022/09/05 02:11:00;;;;;;;14.15;3.35;;;;;;;6.09;63.58;100406.91;4786188;29;20134;-76
2022/09/05 02:13:45;;;;;;;9.82;3.58;;;;;;;6.09;63.90;100415.56;4770696;29;20055;-78
2022/09/05 02:16:14;;;;;;;9.50;2.88;;;;;;;6.10;63.24;100413.81;4778296;29;20062;-79
2022/09/05 02:19:05;;;;;;;4.72;3.00;;;;;;;6.08;63.34;100410.34;4789512;29;20144;-77
2022/09/05 02:21:37;;;;;;;7.72;3.45;;;;;;;6.06;63.51;100410.31;4770099;29;20050;-77
2022/09/05 02:24:26;;;;;;;9.13;3.63;;;;;;;6.02;63.33;100413.69;4786341;29;20074;-76
2022/09/05 02:27:07;;;;;;;8.80;3.38;;;;;;;6.02;63.75;100416.25;4769746;29;20055;-75
2022/09/05 02:29:46;;;;;;;11.40;5.45;;;;;;;5.97;63.65;100408.41;4770446;29;20046;-76
2022/09/05 02:32:20;;;;;;;15.93;5.88;;;;;;;5.98;63.25;100409.25;4755872;29;20070;-77
2022/09/05 02:34:49;;;;;;;16.38;6.68;;;;;;;5.97;64.16;100413.56;4793655;29;20089;-77
2022/09/05 02:37:44;;;;;;;10.45;5.85;;;;;;;6.01;63.74;100418.00;4771950;29;20047;-76
2022/09/05 02:40:24;;;;;;;7.78;3.92;;;;;;;5.97;63.76;100404.94;4794606;29;20062;-78
2022/09/05 02:43:16;;;;;;;13.27;4.20;;;;;;;6.21;63.75;100419.19;4769372;29;20233;-77
2022/09/05 02:46:08;;;;;;;7.47;3.83;;;;;;;6.37;63.82;100422.94;4786134;29;20140;-77
2022/09/05 02:48:53;;;;;;;;;;;;;;;6.43;63.59;100423.91;4769774;29;20101;-76
2022/09/05 02:51:33;;;;;;;8.98;4.05;;;;;;;6.54;63.43;100424.09;4785373;29;19921;-76
2022/09/05 02:54:22;;;;;;;8.63;3.75;;;;;;;6.71;63.93;100424.41;4756087;29;20051;-75
2022/09/05 02:57:00;;;;;;;8.00;4.13;;;;;;;6.88;63.47;100423.81;4796577;29;20062;-77
2022/09/05 03:00:09;;;;;;;7.95;4.32;;;;;;;7.03;63.49;100423.19;4768797;29;20535;-77
2022/09/05 03:03:23;;;;;;;11.65;4.35;;;;;;;7.16;63.33;100421.66;4730648;30;20064;-77
2022/09/05 03:06:23;;;;;;;13.35;3.97;;;;;;;7.21;63.53;100410.53;4727327;30;20062;-77
2022/09/05 03:09:33;;;;;;;14.65;4.95;;;;;;;7.37;63.31;100415.94;4770269;29;20050;-77
2022/09/05 03:12:40;;;;;;;7.40;3.58;;;;;;;7.40;63.08;100415.94;4783845;29;20059;-76
2022/09/05 03:15:16;;;;;;;8.65;4.18;;;;;;;7.51;62.91;100413.50;4761519;29;20047;-77
2022/09/05 03:18:19;;;;;;;8.75;3.53;;;;;;;7.60;62.57;100418.81;4773504;29;20457;-77
2022/09/05 03:20:51;;;;;;;7.38;3.45;;;;;;;7.56;62.54;100413.59;4767608;29;20127;-77
2022/09/05 03:23:55;;;;;;;5.70;3.33;;;;;;;7.66;62.88;100411.16;4769259;29;20065;-77
2022/09/05 03:26:42;;;;;;;9.45;3.45;;;;;;;7.79;62.93;100413.88;4786410;29;20047;-78
2022/09/05 03:29:29;;;;;;;9.35;3.65;;;;;;;7.93;62.65;100409.75;4769133;29;20516;-75
2022/09/05 03:32:26;;;;;;;7.93;3.28;;;;;;;8.07;62.94;100412.47;4784582;29;20047;-75
2022/09/05 03:35:27;;;;;;;6.75;3.55;;;;;;;8.21;62.88;100412.63;4754364;29;20051;-76
2022/09/05 03:38:09;;;;;;;7.00;4.00;;;;;;;8.35;62.74;100402.41;4766742;29;20067;-78
2022/09/05 03:40:47;;;;;;;9.13;3.95;;;;;;;8.49;62.43;100399.13;4786192;29;20121;-78
2022/09/05 03:43:38;;;;;;;12.60;4.18;;;;;;;8.62;62.47;100408.75;4788281;29;20047;-77
2022/09/05 03:46:04;;;;;;;10.80;4.57;;;;;;;8.72;62.26;100409.69;4783989;29;20462;-76
2022/09/05 03:48:53;;;;;;;13.20;4.78;;;;;;;8.82;62.17;100403.72;4754443;29;20600;-76
2022/09/05 03:51:47;;;;;;;9.65;5.70;;;;;;;8.94;62.16;100407.25;4731578;29;20143;-78
2022/09/05 03:54:52;;;;;;;10.80;4.88;;;;;;;9.02;61.85;100401.25;4768469;29;20154;-76
2022/09/05 03:57:21;;;;;;;8.40;4.13;;;;;;;9.10;61.80;100396.13;4763474;29;20115;-78
2022/09/05 04:00:09;;;;;;;12.27;4.60;;;;;;;9.25;61.93;100405.75;4769183;29;20086;-76
2022/09/05 04:02:51;;;;;;;10.18;4.30;;;;;;;9.17;61.52;100386.63;4803085;29;20062;-75
2022/09/05 04:05:29;;;;;;;9.00;4.10;;;;;;;9.24;61.97;100395.34;4789094;29;20055;-77
2022/09/05 04:08:10;;;;;;;10.68;4.50;;;;;;;9.38;62.12;100411.88;4771889;29;20117;-76
2022/09/05 04:10:56;;;;;;;10.52;4.15;;;;;;;9.36;62.07;100390.22;4760247;29;20116;-77
2022/09/05 04:13:32;;;;;;;15.13;4.00;;;;;;;9.52;61.65;100404.16;4789147;29;20534;-74
2022/09/05 04:16:02;;;;;;;9.88;4.45;;;;;;;9.53;61.80;100381.63;4790507;29;20410;-78
2022/09/05 04:18:37;;;;;;;8.43;4.35;;;;;;;9.55;61.67;100375.59;4790671;29;20088;-75
2022/09/05 04:21:16;;;;;;;14.30;4.13;;;;;;;9.70;61.88;100397.31;4789773;29;20088;-75
2022/09/05 04:24:01;;;;;;;6.82;4.30;;;;;;;9.81;62.15;100390.44;4793468;29;20051;-77
2022/09/05 04:26:54;;;;;;;8.98;4.35;;;;;;;9.84;61.76;100374.84;4789428;29;20035;-77
2022/09/05 04:29:42;;;;;;;7.00;4.13;;;;;;;10.02;61.42;100386.19;4802660;29;20638;-77
2022/09/05 04:32:42;;;;;;;12.57;4.90;;;;;;;10.12;61.35;100385.31;4773272;29;20061;-75
2022/09/05 04:35:36;;;;;;;9.85;5.15;;;;;;;10.18;61.31;100381.84;4786513;29;20524;-75
2022/09/05 04:38:09;;;;;;;8.07;4.15;;;;;;;10.27;60.93;100388.81;4787011;29;20409;-77
2022/09/05 04:40:49;;;;;;;7.82;4.18;;;;;;;10.33;61.08;100381.91;4786582;29;20043;-75
2022/09/05 04:43:26;;;;;;;10.35;4.10;;;;;;;10.46;61.32;100390.63;4788734;29;20055;-78
2022/09/05 04:46:03;;;;;;;10.25;4.28;;;;;;;10.55;61.03;100388.00;4786949;29;20047;-75
2022/09/05 04:48:55;;;;;;;11.73;4.30;;;;;;;10.57;61.08;100364.63;4773746;29;20086;-77
2022/09/05 04:51:58;;;;;;;7.25;3.83;;;;;;;10.78;60.79;100387.16;4775967;29;20466;-77
2022/09/05 04:54:42;;;;;;;8.18;3.42;;;;;;;10.93;60.66;100388.00;4789115;29;20807;-77
2022/09/05 04:57:14;;;;;;;8.40;3.58;;;;;;;10.99;60.31;100394.09;4789218;29;20116;-78
2022/09/05 04:59:50;;;;;;;8.75;3.60;;;;;;;11.11;60.11;100385.41;4786196;29;20501;-77
2022/09/05 05:02:52;;;;;;;7.97;3.60;;;;;;;11.26;59.60;100389.69;4789102;29;20141;-78
2022/09/05 05:05:25;;;;;;;11.17;4.40;;;;;;;11.37;59.50;100387.03;4782760;29;20119;-79
2022/09/05 05:08:00;;;;;;;6.07;3.70;;;;;;;11.36;58.94;100374.91;4790037;29;20039;-77
2022/09/05 05:10:41;;;;;;;9.15;3.90;;;;;;;11.49;58.81;100380.09;4784355;29;20148;-76
2022/09/05 05:13:22;;;;;;;9.70;4.47;;;;;;;11.50;58.05;100387.88;4787573;29;20597;-78
2022/09/05 05:16:06;;;;;;;11.40;4.65;;;;;;;11.40;58.45;100387.03;4770490;29;20047;-78
2022/09/05 05:19:24;;;;;;;11.95;4.20;;;;;;;11.39;58.26;100392.28;4787198;29;20074;-76
2022/09/05 05:21:57;;;;;;;8.63;4.13;;;;;;;11.40;58.14;100378.38;4783229;29;20585;-76
2022/09/05 05:24:29;;;;;;;10.68;4.50;;;;;;;11.51;58.52;100389.63;4800550;29;20129;-76
2022/09/05 05:27:20;;;;;;;11.45;4.30;;;;;;;11.64;58.21;100394.81;4785248;29;20440;-77
2022/09/05 05:30:07;;;;;;;11.35;4.47;;;;;;;11.74;58.35;100386.94;4786626;29;20216;-77
2022/09/05 05:32:41;;;;;;;8.43;4.10;;;;;;;11.95;58.36;100390.31;4786528;29;20520;-77
2022/09/05 05:35:13;;;;;;;8.63;4.25;;;;;;;12.13;58.50;100380.69;4783629;29;20050;-77
2022/09/05 05:37:45;;;;;;;6.43;3.85;;;;;;;12.55;58.02;100389.09;4788513;29;20787;-78
2022/09/05 05:40:25;;;;;;;8.80;3.97;;;;;;;12.86;57.45;100364.47;4798969;29;20054;-80
2022/09/05 05:42:52;;;;;;;9.43;3.80;;;;;;;13.57;56.77;100373.34;4790909;29;20046;-79
2022/09/05 05:45:31;;;;;;;8.75;3.67;;;;;;;14.10;55.75;100368.28;4788128;29;20508;-76
2022/09/05 05:48:04;;;;;;;7.93;4.10;;;;;;;14.81;55.14;100376.81;4785990;29;20571;-75
2022/09/05 05:50:48;;;;;;;6.40;2.75;;;;;;;15.71;53.08;100381.22;4795566;29;20055;-77
2022/09/05 05:53:42;;;;;;;8.50;2.80;;;;;;;16.10;51.81;100369.91;4787800;29;20054;-78
2022/09/05 05:56:47;;;;;;;6.18;2.72;;;;;;;16.37;50.39;100372.81;4788277;29;20116;-78
2022/09/05 06:00:07;;;;;;;5.88;2.50;;;;;;;16.69;49.37;100373.75;4768506;29;20047;-79
2022/09/05 06:03:11;;;;;;;5.82;2.75;;;;;;;19.36;48.72;100369.25;4715356;30;20064;-77
2022/09/05 06:05:46;;;;;;;5.85;2.30;;;;;;;20.30;44.37;100356.88;4731127;30;20520;-76
2022/09/05 06:08:24;;;;;;;6.75;2.60;;;;;;;20.09;42.71;100361.25;4788641;29;20051;-78
2022/09/05 06:11:17;;;;;;;3.38;2.47;;;;;;;19.88;42.76;100354.19;4771664;29;20043;-79
2022/09/05 06:14:37;;;;;;;2.83;2.20;;;;;;;19.35;41.70;100346.41;4801260;29;20150;-77
2022/09/05 06:17:34;;;;;;;4.68;2.20;;;;;;;18.89;42.79;100358.56;4787607;29;20560;-79
2022/09/05 06:20:35;;;;;;;3.35;2.00;;;;;;;18.65;42.63;100354.06;4770809;29;20051;-77
2022/09/05 06:23:05;;;;;;;5.53;2.45;;;;;;;18.89;42.84;100362.06;4761357;29;20051;-77
2022/09/05 06:25:46;;;;;;;2.30;2.10;;;;;;;19.96;42.08;100347.66;4786555;29;20050;-80
2022/09/05 06:28:48;;;;;;;7.22;1.80;;;;;;;21.38;39.89;100350.59;4786556;29;20092;-77
2022/09/05 06:31:27;;;;;;;;;;;;;;;21.87;38.48;100341.31;4800169;29;20054;-78
2022/09/05 06:33:56;;;;;;;4.38;1.55;;;;;;;22.18;37.70;100350.44;4784648;29;19953;-78
2022/09/05 06:36:42;;;;;;;2.42;1.73;;;;;;;22.06;36.32;100341.31;4783923;29;20051;-79
2022/09/05 06:39:15;;;;;;;4.05;1.88;;;;;;;22.35;36.36;100346.97;4783008;29;20504;-78
2022/09/05 06:42:32;;;;;;;2.38;1.60;;;;;;;22.40;35.52;100344.94;4785587;29;20466;-76
2022/09/05 06:45:16;;;;;;;5.30;1.80;;;;;;;22.17;35.39;100346.97;4752817;30;20051;-77
2022/09/05 06:47:48;;;;;;;5.57;2.00;;;;;;;22.13;35.10;100334.78;4785160;29;20036;-77
2022/09/05 06:50:22;;;;;;;2.35;1.45;;;;;;;21.85;34.36;100337.91;4786284;29;20046;-80
2022/09/05 06:53:07;;;;;;;2.60;1.70;;;;;;;21.28;35.02;100339.56;4788910;29;20047;-79
2022/09/05 06:56:05;;;;;;;5.72;1.90;;;;;;;21.17;35.50;100344.47;4771587;29;20131;-76
2022/09/05 06:58:50;;;;;;;4.80;2.00;;;;;;;20.89;34.79;100346.56;4797196;29;20515;-77
2022/09/05 07:01:26;;;;;;;3.92;2.10;;;;;;;21.14;35.40;100353.41;4760117;29;20113;-77
2022/09/05 07:03:58;;;;;;;8.85;2.20;;;;;;;21.92;34.82;100336.66;4786389;29;20039;-77
2022/09/05 07:06:42;;;;;;;2.15;1.90;;;;;;;22.64;33.46;100324.34;4781550;29;20084;-74
2022/09/05 07:09:30;;;;;;;3.88;2.35;;;;;;;22.42;32.79;100338.66;4811950;29;20113;-76
2022/09/05 07:12:29;;;;;;;3.45;2.20;;;;;;;21.77;33.07;100340.91;4796141;29;20485;-77
2022/09/05 07:15:30;;;;;;;4.70;2.33;;;;;;;20.96;33.27;100348.94;4793114;29;20039;-77
2022/09/05 07:18:00;;;;;;;5.80;2.60;;;;;;;20.26;34.15;100354.44;4789509;30;20064;-77
2022/09/05 07:20:37;;;;;;;7.53;2.30;;;;;;;19.69;35.07;100339.88;4786219;29;20104;-78
2022/09/05 07:23:16;;;;;;;6.75;2.30;;;;;;;19.33;35.33;100364.09;4789048;29;20051;-75
2022/09/05 07:25:47;;;;;;;5.22;2.47;;;;;;;18.92;35.73;100356.69;4805494;29;20496;-78
2022/09/05 07:28:18;;;;;;;8.88;2.40;;;;;;;18.58;36.11;100354.34;4804832;29;20051;-77
2022/09/05 07:30:55;;;;;;;12.80;4.78;;;;;;;18.21;36.36;100348.50;4794342;29;20050;-76
2022/09/05 07:33:33;;;;;;;7.50;2.55;;;;;;;17.89;36.67;100347.72;4789043;29;20054;-80
2022/09/05 07:36:22;;;;;;;14.65;2.75;;;;;;;17.86;37.07;100345.16;4765545;30;20067;-81
2022/09/05 07:38:56;;;;;;;6.53;2.88;;;;;;;17.76;37.31;100350.69;4789693;29;20047;-76
2022/09/05 07:41:38;;;;;;;5.05;3.05;;;;;;;17.65;37.80;100344.91;4790508;29;20568;-76
2022/09/05 07:44:10;;;;;;;6.68;2.92;;;;;;;17.72;37.89;100345.56;4785557;29;20574;-78
2022/09/05 07:46:39;;;;;;;8.98;3.63;;;;;;;17.59;37.93;100345.06;4797154;29;20503;-78
2022/09/05 07:49:19;;;;;;;8.63;2.70;;;;;;;17.45;37.83;100356.00;4802630;29;20138;-79
2022/09/05 07:52:11;;;;;;;12.73;2.97;;;;;;;17.20;38.27;100358.47;4774327;29;20488;-76
2022/09/05 07:54:44;;;;;;;;;;;;;;;17.02;38.22;100358.91;4771053;30;20047;-78
2022/09/05 07:57:16;;;;;;;7.28;2.80;;;;;;;16.81;38.46;100355.06;4801649;29;19925;-76
2022/09/05 07:59:45;;;;;;;3.60;2.92;;;;;;;16.52;39.08;100343.53;4816515;29;20047;-76
2022/09/05 08:02:12;;;;;;;4.97;2.50;;;;;;;16.34;39.75;100349.25;4796432;29;20055;-78
2022/09/05 08:04:40;;;;;;;3.90;2.90;;;;;;;16.34;39.93;100357.13;4776387;30;20096;-79
2022/09/05 08:07:17;;;;;;;7.20;2.80;;;;;;;16.33;39.97;100363.25;4786204;29;20047;-77
2022/09/05 08:09:53;;;;;;;6.70;2.60;;;;;;;16.15;40.18;100356.69;4799655;29;20504;-77
2022/09/05 08:12:29;;;;;;;6.07;2.50;;;;;;;16.03;40.33;100347.31;4769673;30;20044;-76
2022/09/05 08:15:13;;;;;;;3.83;2.70;;;;;;;16.11;40.61;100362.00;4740521;29;20508;-78
2022/09/05 08:18:16;;;;;;;5.50;3.20;;;;;;;16.11;40.69;100353.28;4759811;30;20392;-76
2022/09/05 08:21:12;;;;;;;4.82;2.80;;;;;;;15.96;40.68;100355.34;4790640;29;20058;-78
2022/09/05 08:24:19;;;;;;;6.40;3.25;;;;;;;15.88;41.11;100346.78;4804954;29;20047;-77
2022/09/05 08:27:03;;;;;;;3.92;2.55;;;;;;;15.90;41.16;100346.72;4776796;29;20055;-78
2022/09/05 08:29:37;;;;;;;5.53;2.50;;;;;;;15.86;40.89;100352.97;4800800;29;20043;-79
2022/09/05 08:32:20;;;;;;;3.55;2.28;;;;;;;15.89;41.00;100338.00;4772713;29;20528;-78
2022/09/05 08:34:48;;;;;;;4.88;2.63;;;;;;;15.92;41.06;100337.94;4766331;29;20055;-78
2022/09/05 08:37:19;;;;;;;5.10;2.53;;;;;;;15.84;40.95;100338.97;4785655;29;20140;-77
2022/09/05 08:39:51;;;;;;;6.90;2.67;;;;;;;15.79;41.22;100344.31;4784965;29;20066;-78
2022/09/05 08:42:17;;;;;;;5.13;2.33;;;;;;;15.66;41.11;100347.22;4779910;29;20046;-79
2022/09/05 08:45:14;;;;;;;3.85;2.03;;;;;;;15.50;41.53;100340.56;4759013;29;20055;-78
2022/09/05 08:48:02;;;;;;;5.72;2.33;;;;;;;15.45;41.81;100347.66;4789341;29;20109;-76
2022/09/05 08:50:28;;;;;;;4.18;1.80;;;;;;;15.42;41.69;100347.72;4772573;29;20103;-78
2022/09/05 08:53:11;;;;;;;8.40;2.05;;;;;;;15.35;41.82;100339.97;4770795;29;20062;-77
2022/09/05 08:56:24;;;;;;;2.58;1.90;;;;;;;15.50;41.86;100343.19;4790072;29;20047;-77
2022/09/05 08:59:16;;;;;;;;;;;;;;;15.79;41.84;100346.94;4773566;29;20623;-77
2022/09/05 09:01:54;;;;;;;1.77;1.63;;;;;;;16.17;41.30;100342.63;4797509;29;20417;-79
2022/09/05 09:04:40;;;;;;;3.42;1.65;;;;;;;16.69;40.64;100337.84;4793976;29;20082;-79
2022/09/05 09:07:06;;;;;;;1.80;1.60;;;;;;;18.06;40.12;100331.44;4792150;29;20054;-79
2022/09/05 09:09:35;;;;;;;2.45;1.52;;;;;;;18.74;37.75;100330.97;4772515;29;20058;-78
2022/09/05 09:12:20;;;;;;;1.70;1.50;;;;;;;18.94;36.86;100335.56;4792095;29;20046;-75
2022/09/05 09:15:05;;;;;;;4.50;1.95;;;;;;;19.14;36.42;100324.31;4789369;29;20055;-77
2022/09/05 09:17:41;;;;;;;3.15;1.80;;;;;;;18.88;36.54;100326.06;4806969;29;20047;-76
2022/09/05 09:20:32;;;;;;;2.67;2.10;;;;;;;18.80;36.18;100322.84;4802205;29;20426;-78
2022/09/05 09:23:17;;;;;;;3.25;2.10;;;;;;;18.93;36.54;100310.94;4786599;29;20597;-79
2022/09/05 09:26:10;;;;;;;2.97;1.80;;;;;;;19.10;35.50;100314.78;4806450;29;20061;-76
2022/09/05 09:29:11;;;;;;;6.50;2.20;;;;;;;18.70;35.72;100318.81;4806885;29;20427;-76
2022/09/05 09:32:19;;;;;;;2.00;1.77;;;;;;;18.27;35.95;100324.59;4756301;29;20086;-77
2022/09/05 09:35:00;;;;;;;3.40;1.50;;;;;;;17.84;36.03;100294.34;4787255;29;20043;-78
2022/09/05 09:37:40;;;;;;;4.40;1.75;;;;;;;17.71;36.14;100320.16;4806280;29;20055;-76
2022/09/05 09:40:18;;;;;;;6.50;2.10;;;;;;;17.50;36.09;100319.91;4800260;29;20493;-77
2022/09/05 09:42:50;;;;;;;6.53;1.95;;;;;;;17.23;36.55;100314.53;4791532;29;20617;-76
2022/09/05 09:45:16;;;;;;;4.32;2.20;;;;;;;17.26;36.77;100322.34;4790535;29;20042;-76
2022/09/05 09:48:00;;;;;;;3.20;1.75;;;;;;;17.23;37.02;100322.41;4791410;29;20039;-78
2022/09/05 09:50:33;;;;;;;4.20;1.48;;;;;;;17.23;36.82;100321.56;4775394;29;20124;-76
2022/09/05 09:53:18;;;;;;;3.92;2.10;;;;;;;17.17;36.76;100323.47;4788169;29;20063;-79
2022/09/05 09:56:29;;;;;;;5.05;1.77;;;;;;;17.21;36.86;100312.84;4793909;29;20046;-77
2022/09/05 09:59:13;;;;;;;2.50;1.70;;;;;;;17.24;36.77;100316.25;4788845;29;20523;-76
2022/09/05 10:01:53;;;;;;;5.53;1.80;;;;;;;17.17;36.67;100326.09;4787970;29;20119;-77
2022/09/05 10:04:31;;;;;;;4.10;1.98;;;;;;;17.16;36.93;100311.22;4774376;30;20051;-78
2022/09/05 10:07:15;;;;;;;3.90;1.60;;;;;;;17.04;36.98;100314.19;4771364;29;20046;-77
2022/09/05 10:09:42;;;;;;;5.95;2.08;;;;;;;17.03;36.97;100323.00;4809788;29;20055;-76
2022/09/05 10:12:23;;;;;;;4.72;2.03;;;;;;;16.93;37.47;100317.09;4803092;29;20129;-78
2022/09/05 10:14:58;;;;;;;3.55;1.58;;;;;;;16.76;37.82;100309.66;4789329;29;20043;-77
2022/09/05 10:17:53;;;;;;;1.98;1.40;;;;;;;16.72;37.86;100310.63;4787200;29;20381;-77
2022/09/05 10:20:28;;;;;;;1.65;1.15;;;;;;;16.95;37.41;100315.31;4760190;29;20157;-78
2022/09/05 10:23:34;;;;;;;4.40;1.50;;;;;;;17.04;37.20;100314.19;4786864;29;20099;-79
2022/09/05 10:26:24;;;;;;;7.53;1.52;;;;;;;17.36;37.50;100315.03;4784557;29;20591;-79
2022/09/05 10:28:59;;;;;;;2.30;1.73;;;;;;;17.55;37.22;100312.75;4785529;29;20051;-77
2022/09/05 10:31:44;;;;;;;1.70;1.60;;;;;;;17.57;36.69;100295.16;4784753;29;20906;-77
2022/09/05 10:34:17;;;;;;;5.32;1.63;;;;;;;17.68;36.57;100294.81;4754739;29;20134;-76
2022/09/05 10:36:50;;;;;;;2.25;1.52;;;;;;;17.56;37.03;100284.66;4787839;29;20062;-76
2022/09/05 10:39:22;;;;;;;4.75;1.70;;;;;;;17.58;36.96;100288.09;4770716;29;20424;-76
2022/09/05 10:41:51;;;;;;;;;;;;;;;17.58;36.80;100291.63;4785958;29;20511;-78
2022/09/05 10:44:39;;;;;;;3.83;1.70;;;;;;;17.48;36.86;100286.66;4786038;29;19921;-78
2022/09/05 10:47:17;;;;;;;2.92;1.63;;;;;;;17.28;36.99;100290.75;4784619;29;20086;-78
2022/09/05 10:49:47;;;;;;;4.57;1.60;;;;;;;16.98;37.26;100277.56;4800099;29;20051;-78
2022/09/05 10:52:25;;;;;;;2.95;1.48;;;;;;;16.82;37.53;100296.34;4785038;29;20051;-78
2022/09/05 10:55:04;;;;;;;4.07;1.42;;;;;;;16.86;38.04;100294.50;4786861;29;20058;-77
2022/09/05 10:57:53;;;;;;;2.58;1.60;;;;;;;16.74;37.64;100264.16;4769007;29;20043;-77
2022/09/05 11:00:32;;;;;;;2.35;1.42;;;;;;;16.94;38.03;100289.03;4784705;29;20062;-77
2022/09/05 11:03:00;;;;;;;6.70;1.48;;;;;;;16.96;37.59;100269.72;4757887;29;20062;-77
2022/09/05 11:05:27;;;;;;;2.42;1.27;;;;;;;16.97;37.89;100275.84;4784447;29;20081;-77
2022/09/05 11:08:14;;;;;;;1.48;1.10;;;;;;;17.09;37.76;100280.78;4785868;29;20047;-76
2022/09/05 11:10:56;;;;;;;2.88;1.30;;;;;;;17.09;37.49;100261.47;4756114;29;20157;-79
2022/09/05 11:13:34;;;;;;;;;;;;;;;17.14;37.63;100278.00;4754532;29;20063;-76
2022/09/05 11:16:34;;;;;;;6.45;1.50;;;;;;;17.10;37.42;100277.19;4768517;29;20323;-78
2022/09/05 11:19:05;;;;;;;4.00;1.33;;;;;;;16.98;37.67;100277.56;4768784;29;20053;-78
2022/09/05 11:21:37;;;;;;;3.28;1.20;;;;;;;16.89;38.06;100270.75;4769215;29;20058;-77
2022/09/05 11:24:32;;;;;;;3.50;1.50;;;;;;;16.67;38.26;100236.31;4785651;29;20050;-77
2022/09/05 11:27:07;;;;;;;1.90;1.35;;;;;;;16.86;38.38;100265.59;4769708;29;20493;-77
2022/09/05 11:29:33;;;;;;;1.67;1.30;;;;;;;16.86;38.40;100261.22;4768452;29;20051;-76
2022/09/05 11:32:33;;;;;;;1.35;1.10;;;;;;;16.76;38.40;100269.38;4753613;29;20046;-77
2022/09/05 11:35:27;;;;;;;4.25;1.20;;;;;;;16.55;38.42;100269.06;4768956;29;20055;-77
2022/09/05 11:38:13;;;;;;;4.00;1.38;;;;;;;16.47;38.81;100266.59;4782717;29;20555;-77
2022/09/05 11:40:59;;;;;;;3.97;1.20;;;;;;;16.34;38.94;100258.19;4754598;29;20162;-76
2022/09/05 11:43:52;;;;;;;2.35;1.50;;;;;;;16.21;39.48;100268.16;4784282;29;20043;-77
2022/09/05 11:46:58;;;;;;;4.60;1.52;;;;;;;16.13;39.68;100253.47;4768448;29;20141;-77
2022/09/05 11:49:41;;;;;;;1.60;1.27;;;;;;;16.27;39.83;100254.84;4783908;29;20045;-78
2022/09/05 11:52:53;;;;;;;2.72;1.30;;;;;;;16.54;39.65;100262.06;4768004;29;20070;-76
2022/09/05 11:55:42;;;;;;;3.08;1.40;;;;;;;16.56;39.81;100255.00;4784730;29;20051;-76
2022/09/05 11:58:47;;;;;;;2.67;1.42;;;;;;;16.80;39.81;100252.59;4784908;29;20051;-76
2022/09/05 12:01:57;;;;;;;3.65;1.40;;;;;;;17.04;39.71;100251.09;4773215;29;20062;-76
2022/09/05 12:05:02;;;;;;;5.25;2.00;;;;;;;17.00;39.61;100250.31;4782621;29;20071;-77
2022/09/05 12:07:37;;;;;;;3.63;1.50;;;;;;;16.99;39.39;100247.75;4783302;29;20043;-81
2022/09/05 12:10:21;;;;;;;2.85;1.60;;;;;;;16.92;39.69;100246.16;4768163;29;20552;-77
2022/09/05 12:13:07;;;;;;;2.58;1.48;;;;;;;16.87;39.68;100251.53;4786328;29;20409;-79
2022/09/05 12:15:36;;;;;;;3.22;1.40;;;;;;;16.70;40.07;100247.63;4793261;29;20055;-79
2022/09/05 12:18:35;;;;;;;3.35;1.30;;;;;;;16.69;40.38;100237.13;4807938;29;20053;-76
2022/09/05 12:22:01;;;;;;;4.32;2.70;;;;;;;16.66;40.40;100226.75;4756388;29;20055;-76
2022/09/05 12:24:46;;;;;;;4.25;2.03;;;;;;;16.73;40.43;100233.53;4781161;29;20055;-75
2022/09/05 12:27:15;;;;;;;4.13;1.80;;;;;;;16.59;40.55;100205.00;4796481;29;20122;-76
2022/09/05 12:29:49;;;;;;;4.72;1.42;;;;;;;16.62;40.84;100223.31;4790651;29;20419;-78
2022/09/05 12:32:24;;;;;;;2.65;1.40;;;;;;;16.67;40.63;100210.03;4797829;29;20096;-77
2022/09/05 12:34:52;;;;;;;4.05;1.10;;;;;;;16.84;40.70;100217.47;4787141;29;20035;-77
2022/09/05 12:37:21;;;;;;;2.35;1.55;;;;;;;16.85;40.63;100217.44;4804794;29;20106;-76
2022/09/05 12:40:05;;;;;;;2.50;1.25;;;;;;;16.79;40.51;100209.72;4801955;29;20058;-79
2022/09/05 12:42:59;;;;;;;1.70;1.15;;;;;;;16.42;40.76;100219.47;4794864;29;20133;-77
2022/09/05 12:45:59;;;;;;;3.10;1.33;;;;;;;15.57;41.85;100147.22;4820708;29;20057;-76
2022/09/05 12:48:41;;;;;;;2.35;1.20;;;;;;;15.39;42.87;100166.84;4807812;29;20508;-76